Bussey, IA (50044)

10:45 PM CDT on July 22, 2014 (GMT -0500)
KIAOSKAL3 Elev 846 ft | 41.29 °N, 92.65 °W | Change Station

Current weather conditions updated 35 seconds ago

Mostly Cloudy
Mostly Cloudy
78.0 °F
Feels Like 80 °F
N
0.0
Wind Variable Wind from North
Gusts 1.0 mph

Tomorrow is forecast to be Much Cooler than today.

Today
High -- | Low -- °F
--% Chance of Precip.
Yesterday
High -- | Low -- °F
Precip. -- in
5:57 AM 8:37 PM
Waning Crescent, 13% visible
Pressure 30.07 in
Visibility 10.0 miles
Clouds Clear
Heat Index 80 °F
Dew Point 70 °F
Humidity 77%
Rainfall 0.00 in
Snow Depth Not available.
UV 0 out of 12
Pollen 6.10 out of 12
Air Quality Not available.
Flu Activity Not available.
METAR KOXV 230335Z AUTO 34008KT 10SM CLR 25/20 A3007 RMK AO2

More Conditions Fewer Conditions

Pressure 30.07 in
Visibility 10.0 miles
Clouds Clear
Heat Index 80 °F
Dew Point 70 °F
Humidity 77%
Rainfall 0.00 in
Snow Depth Not available.
UV 0 out of 12
Pollen 6.10 out of 12
Air Quality Not available.
Flu Activity Not available.
METAR KOXV 230335Z AUTO 34008KT 10SM CLR 25/20 A3007 RMK AO2

More Conditions Fewer Conditions

10-Day Weather Forecast

Almanac

Astronomy

Jul. 22, 2014 Rise Set
Actual Time 5:57 AM CDT 8:37 PM CDT
Civil Twilight 5:25 AM CDT 9:09 PM CDT
Nautical Twilight 4:45 AM CDT 9:49 PM CDT
Astronomical Twilight 3:59 AM CDT 10:35 PM CDT
Moon 2:31 AM CDT (7/22) 5:15 PM CDT (7/22)
Length of Visible Light 15h 44m
Length of Day
14h 40m
Tomorrow will be 1m 45s shorter.
Waning Crescent, 13% of the Moon is Illuminated
Today
Waning Crescent
Jul 26
New
Aug 3
First Quarter
Aug 10
Full
Aug 17
Last Quarter

Today's Extremes

State Highs State Lows

Community

WunderPhotos

Upload Photos

1,736,488 photos uploaded!

Nearby

Snow Depth

Station Depth Elevation
No new snow has been reported.

Earthquake Activity

City Distance Mag. Time & Date
No recent earthquake activity has been reported nearby.
Minimum magnitude displayed is 2.5.

Coastal Water Temperatures

Place Temperature
No Stations Reporting

Nearby Weather Stations

Station Location Temp. Heat Index Dew Point Humidity Wind Precip. Elev Updated Type
HADS MET STATION AT RED ROCK LAKE IA, Pella, IA 77 °F 75 °F - - WNW  at  1 mph 0.00 in / hr 779 ft 10:00 PM CDT MADIS
Oskaloosa, IA 78.0 °F 80 °F 70 °F 77% North  at  0.0 mph 0.00 in / hr 846 ft 10:44 PM CDT Rapid Fire
BankerWeather, Pella, IA 74.8 °F 75 °F 69 °F 83% NW  at  1.7 mph - / hr 850 ft 10:40 PM CDT Normal
Hunters Ridge, Pella, IA 75.6 °F 76 °F 71 °F 84% NNW  at  0.0 mph 0.00 in / hr 840 ft 10:30 PM CDT Normal
Otley, Otley, IA 72.9 °F 71 °F 70 °F 89% NNW  at  2.0 mph 0.00 in / hr 810 ft 10:45 PM CDT Rapid Fire
Rural Pleasantville, Pleasantville, IA 73.6 °F 75 °F 65 °F 75% South  at  2.2 mph - / hr 843 ft 10:37 PM CDT Normal

Show More Stations Show Fewer Stations